Legend :    VFR   Marginal VFR   IFR   Intensive IFR   Very Intensive IFR
Visi :
Ceiling :
>= 8 km
>= 3000ft
5 to 8 km
1000 to 3000 ft
1500m to 5 km
500 to 1000 ft
800 to 1500m
200 to 500 ft
< 800m
< 200 ft
Symbols :   Thunderstorms  Fog  Heavy snow  Heavy precipitations  Wind > 20 kt
SIGMETs :     Misc.  Thunderstorms  Icing  Turbulence  Mountain Waves  Volcanic Ashes






- Airport Elevation : 876 ft
- IATA code : MBX


LJMB - Maribor

CURRENT METAR :
  • 090730Z 36010KT 3000 -SN BR SCT004 OVC029 M00/M01 Q1002

EXPIRED METARs :
  • 090700Z 36009KT 1200 R32/1400N -SN BR BKN004 OVC014 M00/M01 Q1002
  • 090630Z 36010KT 1200 R32/1700N -SN BR BKN004 OVC014 M00/M01 Q1003
  • 090600Z 36012KT 1000 R32/1900N -SN BR BKN004 OVC014 M01/M01 Q1002
  • 090530Z 35013KT 0600 R32/1600U -SN FZFG BKN003 OVC013 M01/M01 Q1002 RESN

TAF TAF LJMB
Valid from the 09 at 06:00 until the 10 at 06:00 UTC


090500Z 0906/1006 36008KT 3000 -SN BR SCT015 OVC030
TEMPO 0906/0908 1500 SN BR SCT005 OVC010
BECMG 0908/0910 6000 NSW
TEMPO 0910/1006 3500 -SN


LOGIN :  

Disclaimer |     EN      FR      IT 



MET'MAP, your aeronautical weather chart ! - Copyright ORBIFLY December 2007 - Disclaimer


ORBIFLY MET'MAP TEAM :

Programming & Development : Alexandra Zaïnal
Concept & original design : Baudouin d'Aumeries
Assistance for programming : Marc-Olivier Méhu
Technical & hardware support : Manuel Goepfert

Contact : metmap@orbifly.com




SOURCES & CREDITS :

   NOAA